Aviation Digital Data Service (ADDS)

Output produced by METARs form (1855 UTC 19 September 2017)
found at http://www.aviationweather.gov/adds/metars/
 
LTAF 191820Z 17003KT 9999 SCT035 27/24 Q1010 NOSIG RMK RWY23 22003KT
TAF LTAF 191640Z 1918/2018 VRB02KT 9999 SCT035 
     BECMG 2009/2011 21012KT
       
LTCP 191750Z 19005KT 160V220 CAVOK 30/07 Q1012
TAF LTCP 191340Z 1915/1924 VRB02KT CAVOK
       
LTBJ 191820Z VRB01KT CAVOK 25/09 Q1010 NOSIG RMK RWY16 07004KT
TAF LTBJ 191640Z 1918/2018 VRB02KT CAVOK 
     BECMG 2008/2010 18012KT FEW030 BKN200 
     BECMG 2015/2017 VRB02KT CAVOK
       
TAF LTAH 191340Z 1915/1924 VRB02KT 9999 SCT040 SCT100 
     TEMPO 1915/1917 -TSRA FEW025CB BKN030
       
TAF LTCO 191340Z 1915/1924 01012KT 9999 FEW040 
     BECMG 1915/1917 VRB02KT CAVOK
       
TAF LTBT 191340Z 1915/1924 VRB02KT CAVOK
       
TAF LTAE 191640Z 1918/2003 36008KT 9999 FEW040 SCT100 
     BECMG 1920/1922 CAVOK
       
LTBY 191750Z 29010KT CAVOK 26/04 Q1014
TAF LTBY 191640Z 1918/2003 VRB02KT CAVOK
       
LTAI 191820Z 00000KT 9999 FEW030 27/24 Q1011 NOSIG RMK RWY18C VRB02KT RWY36R VRB01KT RWY18L VRB01KT
TAF LTAI 191640Z 1918/2018 34005KT 9999 FEW030 
     BECMG 1918/1922 CAVOK 
     BECMG 2006/2009 18010KT FEW030 
     BECMG 2014/2016 09005KT
       
LTBA 191820Z VRB06KT CAVOK 25/19 Q1010 NOSIG RMK RWY17L 01005KT RWY05 34006KT 310V030 RWY23 02005KT 340V040
TAF LTBA 191640Z 1918/2024 VRB02KT CAVOK 
     TEMPO 1923/2003 4500 BR SCT017 
     TEMPO 2003/2006 3200 BR SCT017 
     BECMG 2014/2018 25012KT
       
LTBF 191750Z VRB01KT CAVOK 25/04 Q1011 NOSIG
TAF LTBF 191640Z 1918/2003 VRB02KT CAVOK
       
TAF LTBG 191640Z 1918/2003 VRB02KT CAVOK
       
LTCJ 191820Z 02005KT CAVOK 24/06 Q1012 RMK RWY20 02005KT
TAF LTCJ 191640Z 1918/2018 VRB02KT CAVOK
       
LTBH 191750Z 21003KT CAVOK 24/20 Q1009
TAF LTBH 191640Z 1918/2003 VRB02KT CAVOK
       
LTAY 191750Z 24006KT CAVOK 24/03 Q1016
TAF LTAY 191640Z 1918/2003 VRB02KT CAVOK 
     TEMPO 1918/1920 28012KT
       
TAF LTBL 191640Z 1918/2003 VRB02KT CAVOK
       
LTBU 191820Z 02008KT 8000 NSC 20/18 Q1010 RMK RWY23 06005KT
TAF LTBU 191640Z 1918/2018 VRB02KT CAVOK 
     BECMG 1919/1922 4000 BR SCT015 
     TEMPO 1922/2001 2500 
     TEMPO 2001/2005 1200 BCFG 
     BECMG 2006/2010 9999 NSW
       
LTBS 191820Z 00000KT CAVOK 24/20 Q1011 NOSIG RMK RWY19 36004KT
TAF LTBS 191640Z 1918/2018 VRB02KT CAVOK 
     BECMG 2007/2009 23012KT FEW030 
     BECMG 2016/2018 VRB02KT CAVOK
       
LTCC 191820Z 12004KT CAVOK 27/02 Q1012 NOSIG RMK RWY16 12002KT
TAF LTCC 191640Z 1918/2018 VRB02KT CAVOK
       
LTFD 191750Z 08004KT CAVOK 21/15 Q1010
TAF LTFD 191640Z 1918/2003 VRB02KT CAVOK
       
LTCA 191750Z 32007KT CAVOK 25/05 Q1014 NOSIG
TAF LTCA 191640Z 1918/2003 16006KT CAVOK
       
LTAT 191820Z 18006KT CAVOK 21/05 Q1013 NOSIG RMK RWY03 20006KT
TAF LTAT 191640Z 1918/2018 VRB02KT CAVOK
       
LTAU 191820Z 22008KT 9999 SCT040 26/02 Q1015 NOSIG RMK RWY07 24009KT
TAF LTAU 191640Z 1918/2018 VRB02KT 9999 SCT040 BKN100 
     BECMG 1919/1922 CAVOK 
     BECMG 2007/2010 SCT040
       
LTCD 191750Z 00000KT 9999 SCT045 19/06 Q1017 NOSIG
TAF LTCD 191640Z 1918/2003 VRB02KT 9999 SCT045
       
LTCE 191820Z 07009KT CAVOK 19/02 Q1023 NOSIG RMK RWY08R 06009KT RWY26R 08008KT RWY08L 07009KT
TAF LTCE 191640Z 1918/2018 VRB02KT 9999 SCT030 
     BECMG 1918/1920 CAVOK 
     BECMG 2006/2009 SCT030 
     BECMG 2009/2011 25012KT
       
LTAC 191820Z VRB02G12KT 9999 -TSRA FEW030CB BKN040 28/03 Q1015 RETS BECMG TL1920 NSW RMK RWY21L 00000KT RWY03L VRB01KT RWY21R VRB02KT
TAF LTAC 191640Z 1918/2018 VRB02KT 9999 SCT040 
     TEMPO 1918/1920 03015G25KT -TSRA FEW025CB BKN030
       
TAF LTBI 191640Z 1918/2003 VRB02KT CAVOK
       
LTAD 191817Z 08005KT 040V110 9999 FEW030CB SCT035 28/05 Q1014 RETS TEMPO -TSRA RMK RWY29 04004KT 020V080
TAF AMD LTAD 191714Z 1918/2003 33008KT 9999 SCT040 SCT100 
     TEMPO 1918/1920 -TSRA FEW030CB BKN035 
     BECMG 1920/1922 CAVOK
       
TAF LTBK 191340Z 1915/1924 VRB02KT CAVOK 
     TEMPO 1915/1918 34012KT
       
TAF AMD LTAB 191705Z 1918/2003 VRB02KT 9999 SCT040 SCT100 
     TEMPO 1918/1921 -TSRA FEW025CB BKN030 
     BECMG 1921/1923 CAVOK
       
LTAG 191820Z 20004KT 9999 FEW035 27/23 Q1010 NOSIG
TAF LTAG 191640Z 1918/2018 VRB02KT 9999 SCT030
       
LTCN 191750Z 29010KT CAVOK 30/17 Q1011 NOSIG
TAF LTCN 191640Z 1918/2003 28012KT CAVOK 
     BECMG 1920/1923 VRB02KT
       
TAF LTFA 191340Z 1915/1924 25007KT CAVOK
       
LTAZ 191820Z 08008KT 9999 SCT040 28/03 Q1014 RMK RWY29 07006KT
TAF LTAZ 191640Z 1918/2018 VRB02KT 9999 SCT040 BKN100 
     BECMG 1919/1922 CAVOK 
     BECMG 2007/2010 SCT040
       
LTCF 191750Z 12011KT 9999 FEW035 18/01 Q1024
TAF LTCF 191640Z 1918/2003 VRB02KT 9999 SCT035 
     BECMG 1918/1921 CAVOK
       
TAF LTAL 191340Z 1915/1924 03007KT 9999 SCT030 BKN100
       
LTAN 191750Z 30013KT CAVOK 28/03 Q1014 NOSIG
TAF LTAN 191640Z 1918/2003 34009KT CAVOK
       
TAF LTBN 191340Z 1915/1924 34012KT CAVOK
       
LTCR 191450Z 29003KT 260V320 9999 FEW040 35/08 Q1011
TAF LTCR 191340Z 1915/1924 22007KT 9999 FEW040 
     BECMG 1917/1919 35012KT CAVOK
       
LTAP 191820Z 31005KT 9999 SCT040 25/08 Q1010 NOSIG RMK RWY23 36003KT 310V040
TAF LTAP 191640Z 1918/2018 03008KT 9999 SCT040 
     BECMG 2010/2014 03018KT
       
LTFE 191820Z 09003KT CAVOK 23/16 Q1011 NOSIG RMK RWY10 07003KT
TAF LTFE 191640Z 1918/2018 VRB02KT CAVOK 
     BECMG 2007/2009 26012KT 
     BECMG 2009/2011 FEW035 
     BECMG 2015/2018 VRB02KT CAVOK
       
LTCK 191750Z 10008KT CAVOK 21/02 Q1019
TAF LTCK 191340Z 1915/1924 VRB02KT 9999 SCT040
       
LTAJ 191820Z VRB02KT CAVOK 24/07 Q1012 NOSIG RMK RWY10 00000KT
TAF LTAJ 191640Z 1918/2018 VRB02KT CAVOK
       
LTFJ 191820Z 02008KT CAVOK 23/19 Q1010 NOSIG RMK RWY24 35007KT
TAF LTFJ 191640Z 1918/2018 03012KT CAVOK 
     BECMG 1918/1921 VRB02KT SCT010 
     PROB40 1922/2002 4000 BR BKN008 
     BECMG 2005/2008 CAVOK
       
TAF LTBX 191340Z 1915/1924 02012KT CAVOK 
     BECMG 1918/1921 VRB02KT SCT010 
     PROB30 1921/1924 4000 BR BKN009
       
LTCL 191350Z 16004KT 120V190 9999 FEW040 37/06 Q1011
TAF LTCL 191340Z 1915/1924 18008KT 9999 FEW040 
     BECMG 1917/1919 03012KT CAVOK
       
LTCM 191450Z 10013KT 9999 FEW030 SCT100 24/19 Q1009
TAF LTCM 191340Z 1915/1924 11014KT 9999 SCT030 BKN100
       
TAF LTAV 191340Z 1915/1924 34012KT CAVOK
       
LTFC 191820Z VRB02KT 9999 FEW035 26/06 Q1015 RMK RWY23 06004KT 320V090
TAF LTFC 191640Z 1918/2018 VRB02KT 9999 FEW035 
     BECMG 1918/1922 CAVOK 
     BECMG 2006/2010 SCT035 
     BECMG 2010/2014 34012KT
       
LTAW 191450Z 08010KT 050V110 9999 SCT035 BKN090 33/04 Q1010
TAF LTAW 191340Z 1915/1924 03008KT 9999 SCT040
       
LTBQ 191750Z 00000KT CAVOK 18/18 Q1010 NOSIG
TAF LTBQ 191640Z 1918/2003 VRB02KT 8000 NSC 
     TEMPO 1923/2003 4000 BR SCT008
       
LTCG 191820Z 14005KT 9999 SCT035 24/21 Q1011 NOSIG RMK RWY29 16004KT
TAF LTCG 191640Z 1918/2018 VRB02KT 9999 SCT035 
     PROB30 1921/2001 BKN018
       
LTCI 191750Z 00000KT 9999 FEW040 15/04 Q1022 NOSIG
TAF LTCI 191640Z 1918/2003 15008KT 9999 FEW040
       
TAF LTBP 191340Z 1915/1924 VRB02KT CAVOK 
     BECMG 1920/1923 SCT012
       
LTBR 191820Z VRB02KT CAVOK 21/14 Q1011 NOSIG RMK RWY07 34004KT
TAF LTBR 191640Z 1918/2018 VRB02KT CAVOK 
     PROB30 2003/2006 4000 BR 
     BECMG 2007/2011 FEW035 
     PROB40 2012/2016 34012KT